0J4 weather

Florala Municipal Airport
Florala, Alabama, United States

Public forecast

Using degrees Fahrenheit for public forecast. Weather courtesy of forecast.io.

METAR (pilot weather report)

Retrieved 2017/10/21 11:58 UTC (52 minutes ago):

K0J4 211158Z AUTO 08005KT 10SM CLR 17/15 A3018 RMK AO2 SLP218 T01670150 10189 20167 53011

TAF (pilot weather forecast)

Forecast is more than 6 hours old.

Closest forecast is Duke Field, 25.9 nm (48.0 km) SSW. Retrieved 2017/10/21 01:06 UTC (12 hours ago):

TAF KEGI 210100Z 2101/2207 04005KT 9999 SCT040 BKN250 QNH3007INS BECMG 2114/2115 10010KT 9999 SCT035 BKN250 QNH3002INS BECMG 2122/2123 11006KT 9999 SCT025 BKN250 QNH3005INS TX28/2118Z TN15/2112Z FCST BY USAF WX MET TECH